Time;durP1;ratioP1;P1;durP2;ratioP2;P2;SDS_P1;SDS_P2;PMS_P1;PMS_P2;Temp;Humidity;BMP_temperature;BMP_pressure;BME280_temperature;BME280_humidity;BME280_pressure;Samples;Min_cycle;Max_cycle;Signal;HPM_P1;HPM_P2
2022/05/09 00:02:11;;;;;;;0.50;0.30;;;;;;;23.76;68.96;103181.16;5053999;28;20105;-68
2022/05/09 00:04:37;;;;;;;0.40;0.25;;;;;;;23.77;69.11;103180.13;5051899;28;20082;-69
2022/05/09 00:07:03;;;;;;;0.45;0.10;;;;;;;23.75;68.82;103171.19;5052041;28;20025;-69
2022/05/09 00:09:29;;;;;;;0.10;0.10;;;;;;;23.74;68.93;103175.81;5052106;28;20028;-69
2022/05/09 00:11:54;;;;;;;0.30;0.20;;;;;;;23.74;69.50;103175.81;5050597;28;20031;-69
2022/05/09 00:14:19;;;;;;;0.10;0.10;;;;;;;23.72;68.53;103172.34;5051801;28;20059;-69
2022/05/09 00:16:45;;;;;;;0.30;0.20;;;;;;;23.73;69.44;103174.06;5051997;28;20514;-69
2022/05/09 00:19:11;;;;;;;0.93;0.10;;;;;;;23.71;68.54;103181.59;5054734;28;20018;-69
2022/05/09 00:21:39;;;;;;;0.17;0.17;;;;;;;23.72;69.26;103176.97;5055505;28;20024;-69
2022/05/09 00:24:05;;;;;;;0.15;0.10;;;;;;;23.71;68.35;103181.59;5055606;28;20028;-69
2022/05/09 00:26:31;;;;;;;0.10;0.08;;;;;;;23.73;69.01;103175.97;5055184;28;20041;-69
2022/05/09 00:29:02;;;;;;;0.88;0.40;;;;;;;23.70;68.50;103169.75;5058763;28;20029;-69
2022/05/09 00:31:28;;;;;;;0.30;0.20;;;;;;;23.72;68.84;103168.75;5055310;28;20021;-69
2022/05/09 00:33:54;;;;;;;0.68;0.20;;;;;;;23.70;69.01;103164.25;5055689;28;20590;-69
2022/05/09 00:36:21;;;;;;;0.38;0.38;;;;;;;23.70;69.60;103157.91;5055203;28;20075;-69
2022/05/09 00:38:46;;;;;;;0.20;0.20;;;;;;;23.68;68.92;103160.81;5055251;28;20032;-69
2022/05/09 00:44:01;;;;;;;0.52;0.10;;;;;;;23.69;69.80;103162.53;5055759;28;20093;-69
2022/05/09 00:46:28;;;;;;;0.20;0.15;;;;;;;23.67;69.02;103156.31;5057126;28;20593;-69
2022/05/09 00:48:54;;;;;;;0.30;0.10;;;;;;;23.66;68.10;103168.31;5055112;28;20400;-69
2022/05/09 00:51:23;;;;;;;0.30;0.20;;;;;;;23.65;68.38;103161.09;5055032;28;20134;-69
2022/05/09 00:53:50;;;;;;;0.13;0.10;;;;;;;23.68;69.01;103163.56;5053660;28;20392;-69
2022/05/09 00:56:27;;;;;;;0.20;0.20;;;;;;;23.66;68.56;103157.31;5054911;28;20365;-69
2022/05/09 00:58:58;;;;;;;0.10;0.10;;;;;;;23.68;69.54;103159.91;5054967;28;20032;-69
2022/05/09 01:01:23;;;;;;;0.20;0.10;;;;;;;23.65;68.90;103155.59;5055351;28;20021;-69
2022/05/09 01:03:53;;;;;;;0.45;0.30;;;;;;;23.65;69.08;103155.59;5054917;28;20025;-71
2022/05/09 01:06:19;;;;;;;0.20;0.20;;;;;;;23.65;68.46;103155.59;5054666;28;20468;-69
2022/05/09 01:08:44;;;;;;;0.28;0.20;;;;;;;23.65;68.82;103155.59;5054771;28;20036;-69
2022/05/09 01:11:14;;;;;;;0.52;0.30;;;;;;;23.65;68.41;103150.09;5054795;28;20021;-69
2022/05/09 01:13:48;;;;;;;1.10;0.38;;;;;;;23.64;68.82;103153.00;5054497;28;20029;-69
2022/05/09 01:16:16;;;;;;;0.30;0.20;;;;;;;23.61;69.30;103143.19;5056017;28;20021;-69
2022/05/09 01:18:44;;;;;;;0.28;0.20;;;;;;;23.65;69.57;103146.50;5062239;28;20033;-69
2022/05/09 01:21:31;;;;;;;0.47;0.20;;;;;;;23.63;69.43;103149.38;5054548;28;20061;-69
2022/05/09 01:23:57;;;;;;;0.20;0.20;;;;;;;23.63;68.59;103149.38;5054442;28;20028;-69
2022/05/09 01:26:23;;;;;;;1.27;0.20;;;;;;;23.60;68.07;103144.22;5054109;28;20053;-69
2022/05/09 01:28:48;;;;;;;0.28;0.20;;;;;;;23.62;68.58;103144.91;5057420;28;20076;-69
2022/05/09 01:31:17;;;;;;;0.20;0.20;;;;;;;23.62;68.68;103144.91;5053640;28;20056;-69
2022/05/09 01:33:46;;;;;;;2.05;0.75;;;;;;;23.62;68.89;103141.31;5054512;28;20036;-69
2022/05/09 01:36:21;;;;;;;0.57;0.25;;;;;;;23.62;69.49;103147.66;5054120;28;20071;-69
2022/05/09 01:38:50;;;;;;;0.95;0.30;;;;;;;23.60;68.13;103146.97;5054487;28;20368;-69
2022/05/09 01:41:15;;;;;;;0.57;0.20;;;;;;;23.61;68.72;103148.69;5055149;28;20063;-69
2022/05/09 01:43:44;;;;;;;0.20;0.20;;;;;;;23.61;68.20;103147.81;5055311;28;20025;-69
2022/05/09 01:46:12;;;;;;;0.30;0.20;;;;;;;23.59;68.21;103144.38;5054150;28;20021;-69
2022/05/09 01:51:22;;;;;;;0.20;0.10;;;;;;;23.59;68.05;103134.25;5053850;28;20392;-69
2022/05/09 01:53:53;;;;;;;0.65;0.15;;;;;;;23.61;69.24;103126.72;5052642;28;20036;-69
2022/05/09 01:56:21;;;;;;;0.22;0.10;;;;;;;23.61;69.27;103128.59;5056383;28;20024;-69
2022/05/09 01:58:46;;;;;;;0.35;0.35;;;;;;;23.59;69.43;103123.25;5053940;28;20067;-69
2022/05/09 02:01:12;;;;;;;0.20;0.20;;;;;;;23.60;69.34;103124.13;5053797;28;20403;-69
2022/05/09 02:03:37;;;;;;;0.55;0.30;;;;;;;23.59;68.06;103133.38;5057314;28;20028;-69
2022/05/09 02:06:03;;;;;;;1.02;0.52;;;;;;;23.60;68.53;103138.72;5059411;28;20020;-69
2022/05/09 02:08:29;;;;;;;0.40;0.13;;;;;;;23.57;68.12;103128.03;5053538;28;20032;-69
2022/05/09 02:10:54;;;;;;;1.10;0.20;;;;;;;23.58;68.51;103120.66;5054567;28;20520;-69
2022/05/09 02:13:20;;;;;;;0.60;0.20;;;;;;;23.58;69.50;103127.03;5051986;28;20051;-69
2022/05/09 02:15:45;;;;;;;0.57;0.30;;;;;;;23.59;68.28;103125.16;5053544;28;20021;-69
2022/05/09 02:18:10;;;;;;;0.30;0.20;;;;;;;23.59;69.18;103128.75;5052268;28;20016;-70
2022/05/09 02:20:36;;;;;;;1.17;0.20;;;;;;;23.58;68.49;103123.41;5053329;28;20356;-69
2022/05/09 02:23:01;;;;;;;0.85;0.38;;;;;;;23.58;69.01;103121.53;5053385;28;20059;-69
2022/05/09 02:25:29;;;;;;;0.10;0.10;;;;;;;23.58;68.76;103118.78;5053653;28;20350;-69
2022/05/09 02:27:58;;;;;;;0.30;0.20;;;;;;;23.57;68.39;103140.91;5051792;28;20060;-69
2022/05/09 02:30:23;;;;;;;0.30;0.13;;;;;;;23.56;68.37;103130.91;5053040;28;20025;-69
2022/05/09 02:32:49;;;;;;;0.20;0.20;;;;;;;23.56;68.81;103131.78;5051805;28;20025;-69
2022/05/09 02:35:15;;;;;;;0.30;0.20;;;;;;;23.55;68.64;103130.03;5053074;28;20024;-69
2022/05/09 02:37:41;;;;;;;0.43;0.13;;;;;;;23.56;68.29;103136.41;5054584;28;20039;-69
2022/05/09 02:40:07;;;;;;;0.25;0.10;;;;;;;23.56;68.31;103122.66;5053075;28;20021;-69
2022/05/09 02:42:34;;;;;;;0.32;0.10;;;;;;;23.56;69.06;103126.28;5051987;28;20044;-69
2022/05/09 02:44:59;;;;;;;0.00;0.00;;;;;;;23.55;68.79;103130.03;5052983;28;20460;-69
2022/05/09 02:47:26;;;;;;;1.38;0.10;;;;;;;23.54;68.90;103120.06;5061299;28;20032;-69
2022/05/09 02:49:51;;;;;;;0.20;0.20;;;;;;;23.55;68.94;103121.81;5052855;28;20056;-69
2022/05/09 02:52:16;;;;;;;0.80;0.30;;;;;;;23.54;68.92;103131.06;5054824;28;20041;-69
2022/05/09 02:54:42;;;;;;;0.30;0.10;;;;;;;23.55;68.75;103131.94;5052987;28;20078;-69
2022/05/09 02:57:08;;;;;;;0.63;0.30;;;;;;;23.54;68.09;103121.97;5052887;28;20031;-69
2022/05/09 02:59:34;;;;;;;2.63;1.55;;;;;;;23.55;69.24;103131.94;5052612;28;20024;-69
2022/05/09 03:02:01;;;;;;;0.32;0.15;;;;;;;23.53;68.73;103068.94;5052795;28;20013;-69
2022/05/09 03:04:39;;;;;;;0.95;0.22;;;;;;;23.54;68.67;103081.63;5052528;28;20016;-69
2022/05/09 03:07:04;;;;;;;0.30;0.22;;;;;;;23.53;68.22;103071.69;5052628;28;20029;-69
2022/05/09 03:09:30;;;;;;;0.22;0.10;;;;;;;23.56;68.71;103148.25;5053591;28;20040;-70
2022/05/09 03:11:56;;;;;;;0.10;0.10;;;;;;;23.55;68.81;103151.16;5052490;28;20102;-69
2022/05/09 03:14:21;;;;;;;0.20;0.17;;;;;;;23.53;69.16;103156.78;5052384;28;20460;-69
2022/05/09 03:16:47;;;;;;;0.60;0.30;;;;;;;23.52;68.56;103148.72;5052806;28;20500;-69
2022/05/09 03:19:12;;;;;;;0.22;0.10;;;;;;;23.55;69.86;103149.25;5052433;28;20478;-69
2022/05/09 03:21:38;;;;;;;0.20;0.20;;;;;;;23.54;68.51;103146.69;5052411;28;20226;-69
2022/05/09 03:24:03;;;;;;;0.20;0.20;;;;;;;23.53;69.11;103132.09;5052980;28;20314;-69
2022/05/09 03:26:29;;;;;;;0.80;0.20;;;;;;;23.53;69.24;103140.31;5052084;28;20052;-69
2022/05/09 03:28:54;;;;;;;0.47;0.30;;;;;;;23.53;68.77;103133.97;5052312;28;20090;-69
2022/05/09 03:31:20;;;;;;;0.20;0.20;;;;;;;23.52;68.91;103130.34;5052242;28;20047;-69
2022/05/09 03:33:45;;;;;;;0.32;0.20;;;;;;;23.52;68.53;103130.34;5052358;28;20067;-69
2022/05/09 03:36:11;;;;;;;1.02;0.40;;;;;;;23.52;69.06;103122.13;5061773;28;20016;-69
2022/05/09 03:38:37;;;;;;;0.38;0.20;;;;;;;23.52;68.48;103127.59;5065719;28;20270;-69
2022/05/09 03:41:03;;;;;;;0.40;0.20;;;;;;;23.53;69.27;103120.22;5052324;28;20029;-69
2022/05/09 03:43:28;;;;;;;0.55;0.40;;;;;;;23.53;69.54;103112.00;5052126;28;20079;-69
2022/05/09 03:45:55;;;;;;;0.52;0.28;;;;;;;23.52;69.86;103116.63;5052189;28;20033;-69
2022/05/09 03:48:20;;;;;;;0.60;0.20;;;;;;;23.51;68.47;103124.97;5052305;28;20025;-69
2022/05/09 03:50:45;;;;;;;1.17;0.10;;;;;;;23.51;68.99;103112.13;5052098;28;20013;-69
2022/05/09 03:53:11;;;;;;;0.40;0.20;;;;;;;23.52;68.84;103115.75;5053484;28;20032;-69
2022/05/09 03:55:36;;;;;;;0.20;0.20;;;;;;;23.52;69.41;103116.63;5056045;28;20059;-69
2022/05/09 03:58:02;;;;;;;0.47;0.35;;;;;;;23.49;69.18;103111.41;5056129;28;20492;-69
2022/05/09 04:00:29;;;;;;;0.20;0.20;;;;;;;23.50;69.42;103074.69;5055865;28;20456;-69
2022/05/09 04:02:54;;;;;;;0.82;0.15;;;;;;;23.59;71.14;103062.84;5055162;28;20025;-69
2022/05/09 04:05:20;;;;;;;0.85;0.20;;;;;;;23.70;70.94;103102.97;5057027;28;20380;-69
2022/05/09 04:07:50;;;;;;;0.10;0.10;;;;;;;23.76;69.65;103101.50;5055911;28;20064;-69
2022/05/09 04:10:21;;;;;;;0.50;0.15;;;;;;;23.81;70.59;103116.50;5055845;28;20063;-69
2022/05/09 04:12:46;;;;;;;0.20;0.20;;;;;;;23.85;70.53;103111.53;5055796;28;20025;-69
2022/05/09 04:17:57;;;;;;;0.30;0.10;;;;;;;23.89;70.91;103086.38;5056420;28;20051;-69
2022/05/09 04:20:24;;;;;;;0.82;0.30;;;;;;;23.93;70.65;103075.94;5055488;28;20040;-69
2022/05/09 04:22:51;;;;;;;0.38;0.10;;;;;;;23.94;70.87;103084.03;5055646;28;20024;-69
2022/05/09 04:25:17;;;;;;;0.55;0.30;;;;;;;23.99;70.72;103075.31;5055585;28;20032;-69
2022/05/09 04:27:42;;;;;;;0.25;0.22;;;;;;;24.01;71.26;103078.75;5060415;28;20047;-69
2022/05/09 04:30:09;;;;;;;0.20;0.10;;;;;;;24.02;70.47;103075.03;5055559;28;20029;-69
2022/05/09 04:32:35;;;;;;;0.95;0.25;;;;;;;24.05;70.60;103085.69;5055682;28;20049;-68
2022/05/09 04:35:01;;;;;;;0.70;0.17;;;;;;;24.05;71.29;103085.69;5055912;28;20035;-69
2022/05/09 04:37:26;;;;;;;0.50;0.20;;;;;;;24.06;71.13;103081.06;5055118;28;20052;-69
2022/05/09 04:39:54;;;;;;;0.32;0.10;;;;;;;24.08;71.66;103074.38;5054377;28;20028;-69
2022/05/09 04:42:19;;;;;;;0.20;0.10;;;;;;;24.09;71.45;103081.59;5055161;28;20024;-69
2022/05/09 04:44:44;;;;;;;0.28;0.20;;;;;;;24.12;70.41;103084.03;5055216;28;20017;-69
2022/05/09 04:47:10;;;;;;;0.40;0.28;;;;;;;24.13;71.00;103077.50;5056539;28;20079;-68
2022/05/09 04:49:35;;;;;;;0.30;0.30;;;;;;;24.14;71.32;103076.50;5055013;28;20031;-69
2022/05/09 04:52:02;;;;;;;1.13;0.20;;;;;;;24.15;70.90;103078.22;5055028;28;20434;-68
2022/05/09 04:54:28;;;;;;;1.17;0.20;;;;;;;24.16;71.13;103079.94;5054901;28;20036;-69
2022/05/09 04:56:53;;;;;;;0.47;0.20;;;;;;;24.18;71.77;103077.91;5055033;28;20052;-69
2022/05/09 04:59:19;;;;;;;0.30;0.30;;;;;;;24.18;70.84;103079.78;5055066;28;20416;-69
2022/05/09 05:01:44;;;;;;;0.85;0.10;;;;;;;24.19;71.47;103081.53;5055011;28;20109;-69
2022/05/09 05:04:10;;;;;;;0.30;0.30;;;;;;;24.21;71.08;103080.38;5054379;28;20070;-69
2022/05/09 05:06:35;;;;;;;0.28;0.20;;;;;;;24.21;70.73;103080.38;5054301;28;20379;-69
2022/05/09 05:09:01;;;;;;;0.43;0.20;;;;;;;24.21;71.39;103080.38;5055509;28;20108;-68
2022/05/09 05:11:26;;;;;;;0.22;0.10;;;;;;;24.23;71.83;103069.22;5054618;28;20472;-69
2022/05/09 05:13:51;;;;;;;0.22;0.10;;;;;;;24.24;71.70;103070.94;5054619;28;20112;-69
2022/05/09 05:16:17;;;;;;;0.40;0.40;;;;;;;24.25;72.05;103065.28;5054725;28;20360;-69
2022/05/09 05:18:44;;;;;;;0.10;0.10;;;;;;;24.24;71.78;103069.06;5064625;28;20025;-69
2022/05/09 05:21:11;;;;;;;0.30;0.20;;;;;;;24.25;72.20;103059.78;5055238;28;20196;-69
2022/05/09 05:23:38;;;;;;;0.55;0.30;;;;;;;24.25;71.84;103065.28;5054438;28;20029;-69
2022/05/09 05:26:04;;;;;;;0.60;0.28;;;;;;;24.26;71.99;103061.50;5053239;28;20020;-69
2022/05/09 05:28:32;;;;;;;0.20;0.20;;;;;;;24.27;71.65;103063.22;5054278;28;20495;-69
2022/05/09 05:31:10;;;;;;;0.30;0.30;;;;;;;24.28;71.67;103064.94;5054437;28;20037;-69
2022/05/09 05:33:35;;;;;;;0.85;0.30;;;;;;;24.27;70.83;103057.72;5054824;28;20112;-69
2022/05/09 05:36:00;;;;;;;0.20;0.20;;;;;;;24.30;72.16;103054.69;5054276;28;20108;-69
2022/05/09 05:38:27;;;;;;;0.38;0.35;;;;;;;24.32;72.11;103061.91;5054077;28;20039;-69
2022/05/09 05:40:56;;;;;;;0.73;0.22;;;;;;;24.28;72.17;103053.97;5054261;28;20028;-69
2022/05/09 05:43:22;;;;;;;0.65;0.20;;;;;;;24.32;72.14;103059.16;5053940;28;20063;-69
2022/05/09 05:45:47;;;;;;;0.30;0.10;;;;;;;24.32;71.62;103075.66;5056326;28;20028;-69
2022/05/09 05:48:12;;;;;;;0.20;0.20;;;;;;;24.31;72.34;103077.53;5053968;28;20020;-69
2022/05/09 05:50:38;;;;;;;0.20;0.20;;;;;;;24.30;72.25;103082.19;5053920;28;20035;-69
2022/05/09 05:53:04;;;;;;;0.32;0.20;;;;;;;24.30;71.99;103057.44;5053945;28;20021;-69
2022/05/09 05:55:29;;;;;;;0.60;0.13;;;;;;;24.30;71.48;103048.34;5053747;28;20032;-69
2022/05/09 05:57:54;;;;;;;0.88;0.60;;;;;;;24.30;71.66;103046.44;5053905;28;20056;-69
2022/05/09 06:00:22;;;;;;;0.52;0.25;;;;;;;24.32;72.49;103037.19;5054510;28;20376;-69
2022/05/09 06:02:47;;;;;;;0.20;0.20;;;;;;;24.32;72.10;103042.66;5052489;28;20016;-69
2022/05/09 06:05:15;;;;;;;0.50;0.22;;;;;;;24.33;72.18;103037.00;5053684;28;20472;-69
2022/05/09 06:07:41;;;;;;;0.30;0.13;;;;;;;24.32;71.94;103046.28;5069913;28;20116;-69
2022/05/09 06:10:07;;;;;;;0.10;0.10;;;;;;;24.33;72.21;103045.25;5053669;28;20104;-69
2022/05/09 06:12:33;;;;;;;0.63;0.10;;;;;;;24.32;72.04;103042.66;5053687;28;20071;-69
2022/05/09 06:17:42;;;;;;;0.20;0.20;;;;;;;24.33;72.79;103034.25;5040175;28;20083;-69
2022/05/09 06:20:11;;;;;;;0.30;0.10;;;;;;;23.75;58.75;103039.34;5053284;28;20032;-68
2022/05/09 06:22:38;;;;;;;0.25;0.10;;;;;;;23.75;57.86;103033.84;5053281;28;20028;-69
2022/05/09 06:25:06;;;;;;;0.30;0.10;;;;;;;23.74;58.34;103032.97;5052493;28;20024;-68
2022/05/09 06:27:32;;;;;;;0.22;0.00;;;;;;;23.75;58.64;103028.34;5052990;28;20045;-68
2022/05/09 06:29:59;;;;;;;0.38;0.10;;;;;;;23.75;57.83;103028.34;5054089;28;20036;-69
2022/05/09 06:32:25;;;;;;;0.08;0.08;;;;;;;23.94;63.13;103030.97;5051383;28;20035;-69
2022/05/09 06:34:51;;;;;;;0.20;0.10;;;;;;;24.03;65.24;103029.16;5053036;28;20399;-69
2022/05/09 06:37:17;;;;;;;0.00;0.00;;;;;;;24.08;65.98;103033.16;5052980;28;20021;-69
2022/05/09 06:39:42;;;;;;;0.17;0.08;;;;;;;24.10;66.81;103028.38;5052971;28;20028;-69
2022/05/09 06:42:08;;;;;;;0.43;0.10;;;;;;;;;;5053099;28;20032;-69
2022/05/09 06:44:35;;;;;;;0.00;0.00;;;;;;;24.17;68.70;103023.09;5033159;28;20040;-69
2022/05/09 06:47:01;;;;;;;0.20;0.10;;;;;;;24.19;68.95;103026.56;5031168;28;20026;-69
2022/05/09 06:49:26;;;;;;;0.10;0.10;;;;;;;24.22;69.26;103024.38;5032498;28;20021;-68
2022/05/09 06:51:51;;;;;;;0.65;0.13;;;;;;;24.21;70.00;103024.53;5043413;28;20057;-69
2022/05/09 06:54:20;;;;;;;2.28;0.40;;;;;;;24.23;70.19;103016.97;5032937;28;20029;-69
2022/05/09 06:56:45;;;;;;;0.20;0.20;;;;;;;24.24;70.57;103022.31;5031648;28;20036;-69
2022/05/09 06:59:11;;;;;;;0.20;0.10;;;;;;;24.27;70.69;103027.50;5032901;28;20380;-69
2022/05/09 07:01:37;;;;;;;0.20;0.20;;;;;;;24.29;71.03;103027.38;5032773;28;20032;-68
2022/05/09 07:04:03;;;;;;;0.30;0.20;;;;;;;24.30;70.88;103020.84;5034123;28;20018;-69
2022/05/09 07:06:28;;;;;;;0.10;0.10;;;;;;;24.34;70.69;103024.13;5032640;28;20043;-69
2022/05/09 07:08:53;;;;;;;0.38;0.20;;;;;;;24.36;71.44;103027.63;5032741;28;20118;-69
2022/05/09 07:11:19;;;;;;;0.20;0.20;;;;;;;24.35;71.92;103031.34;5032599;28;20025;-69
2022/05/09 07:13:44;;;;;;;0.85;0.50;;;;;;;24.35;71.05;103031.34;5032594;28;20022;-68
2022/05/09 07:16:11;;;;;;;0.40;0.20;;;;;;;24.35;71.58;103036.84;5032680;28;20041;-69
2022/05/09 07:18:38;;;;;;;0.50;0.40;;;;;;;24.37;71.77;103032.09;5032423;28;20029;-69
2022/05/09 07:21:05;;;;;;;0.20;0.20;;;;;;;24.38;71.95;103031.94;5032666;28;20056;-69
2022/05/09 07:23:30;;;;;;;0.10;0.10;;;;;;;24.37;72.42;103035.69;5032376;28;20025;-69
2022/05/09 07:25:55;;;;;;;0.30;0.30;;;;;;;24.39;72.09;103038.28;5032577;28;20545;-69
2022/05/09 07:28:21;;;;;;;0.57;0.30;;;;;;;24.41;71.76;103041.75;5031655;28;20049;-69
2022/05/09 07:30:47;;;;;;;0.38;0.30;;;;;;;24.41;72.56;103036.25;5032488;28;20473;-69
2022/05/09 07:33:15;;;;;;;0.38;0.20;;;;;;;24.41;72.58;103037.09;5035470;28;20010;-68
2022/05/09 07:35:42;;;;;;;0.40;0.25;;;;;;;24.41;72.69;103036.25;5040559;28;20025;-68
2022/05/09 07:38:08;;;;;;;0.13;0.13;;;;;;;24.42;72.13;103032.47;5032547;28;20477;-69
2022/05/09 07:40:33;;;;;;;0.40;0.32;;;;;;;24.42;72.68;103037.97;5032267;28;20036;-69
2022/05/09 07:42:59;;;;;;;0.30;0.25;;;;;;;24.41;72.26;103037.09;5032410;28;20025;-69
2022/05/09 07:45:24;;;;;;;0.57;0.47;;;;;;;24.42;72.94;103032.47;5030917;28;20030;-69
2022/05/09 07:47:49;;;;;;;0.30;0.30;;;;;;;24.40;71.93;103029.88;5032272;28;20025;-69
2022/05/09 07:50:17;;;;;;;0.82;0.25;;;;;;;24.44;72.63;103030.41;5033417;28;20025;-68
2022/05/09 07:52:42;;;;;;;0.63;0.15;;;;;;;24.46;72.31;103031.13;5032124;28;20021;-68
2022/05/09 07:55:11;;;;;;;0.50;0.35;;;;;;;24.44;72.04;103027.66;5032322;28;20112;-69
2022/05/09 07:57:37;;;;;;;0.30;0.10;;;;;;;24.46;72.04;103017.38;5032225;28;20479;-69
2022/05/09 08:00:05;;;;;;;0.22;0.20;;;;;;;24.44;72.28;103019.41;5032273;28;20030;-69
2022/05/09 08:02:32;;;;;;;0.10;0.10;;;;;;;24.47;71.92;103013.59;5032067;28;20588;-69
2022/05/09 08:04:57;;;;;;;0.73;0.30;;;;;;;24.46;73.09;103018.22;5032163;28;20025;-69
2022/05/09 08:07:22;;;;;;;0.55;0.20;;;;;;;24.46;73.12;103006.38;5032106;28;20037;-65
2022/05/09 08:09:48;;;;;;;0.10;0.10;;;;;;;24.47;72.44;103013.59;5047807;28;20029;-64
2022/05/09 08:12:14;;;;;;;0.30;0.10;;;;;;;24.29;67.52;103006.25;5047661;28;20021;-68
2022/05/09 08:14:39;;;;;;;0.05;0.05;;;;;;;24.41;70.25;103003.25;5062190;28;20037;-68
2022/05/09 08:17:08;;;;;;;1.48;0.32;;;;;;;24.42;70.57;102999.47;5052063;28;20028;-68
2022/05/09 08:19:33;;;;;;;0.63;0.20;;;;;;;24.42;71.70;102993.97;5051745;28;20029;-68
2022/05/09 08:21:58;;;;;;;0.55;0.20;;;;;;;24.42;71.66;102994.84;5051936;28;20032;-69
2022/05/09 08:24:25;;;;;;;0.10;0.10;;;;;;;24.43;71.88;102996.56;5051750;28;20032;-68
2022/05/09 08:26:50;;;;;;;0.10;0.10;;;;;;;24.44;71.62;102997.41;5052836;28;20503;-68
2022/05/09 08:29:15;;;;;;;0.70;0.20;;;;;;;24.44;71.97;102986.41;5051890;28;20021;-68
2022/05/09 08:31:41;;;;;;;0.60;0.20;;;;;;;24.42;71.83;102983.84;5051740;28;20024;-68
2022/05/09 08:34:06;;;;;;;0.30;0.20;;;;;;;24.44;72.37;102986.41;5051893;28;20032;-68
2022/05/09 08:36:48;;;;;;;0.70;0.20;;;;;;;24.46;72.44;102984.38;5050290;28;20074;-68
2022/05/09 08:39:14;;;;;;;0.03;0.03;;;;;;;24.48;72.74;102982.31;5052271;28;20025;-69
2022/05/09 08:42:00;;;;;;;0.40;0.17;;;;;;;24.48;72.36;102982.31;5054920;28;20036;-68
2022/05/09 08:45:02;;;;;;;0.03;0.03;;;;;;;24.47;72.65;102977.84;5055092;28;20021;-68
2022/05/09 08:47:49;;;;;;;0.17;0.10;;;;;;;24.50;72.01;102980.28;5012919;28;20492;-68
2022/05/09 08:50:30;;;;;;;0.38;0.20;;;;;;;24.49;72.79;102978.53;4996890;28;20493;-68
2022/05/09 08:53:06;;;;;;;0.43;0.10;;;;;;;24.49;72.65;102970.28;5014651;28;20033;-68
2022/05/09 08:55:41;;;;;;;0.63;0.30;;;;;;;24.51;72.56;102971.84;5013079;28;20021;-68
2022/05/09 08:58:39;;;;;;;0.63;0.10;;;;;;;24.53;72.23;102968.97;5013097;28;20046;-68
2022/05/09 09:01:14;;;;;;;0.28;0.28;;;;;;;24.52;72.35;102961.72;5013101;28;20022;-68
2022/05/09 09:03:44;;;;;;;0.57;0.30;;;;;;;24.52;72.67;102964.47;5030947;28;20576;-67
2022/05/09 09:06:17;;;;;;;0.60;0.30;;;;;;;24.52;72.85;102961.72;5013059;28;20030;-68
2022/05/09 09:09:17;;;;;;;0.52;0.20;;;;;;;24.51;72.17;102954.50;5013089;28;20420;-68
2022/05/09 09:12:11;;;;;;;0.32;0.30;;;;;;;24.51;72.64;102949.00;5014887;28;20502;-68
2022/05/09 09:14:55;;;;;;;0.93;0.32;;;;;;;24.52;72.74;102945.22;5012516;28;20453;-68
2022/05/09 09:17:49;;;;;;;0.40;0.22;;;;;;;24.52;73.00;102947.97;5012479;28;20493;-68
2022/05/09 09:20:25;;;;;;;0.82;0.30;;;;;;;24.52;72.61;102939.72;4915920;29;20036;-68
2022/05/09 09:23:17;;;;;;;0.55;0.20;;;;;;;24.54;72.76;102937.69;4915974;29;20032;-68
2022/05/09 09:25:48;;;;;;;1.05;0.40;;;;;;;24.54;73.10;102937.69;4973431;28;20486;-68
2022/05/09 09:28:18;;;;;;;0.20;0.20;;;;;;;24.53;73.09;102936.84;4974541;28;20055;-68
2022/05/09 09:30:46;;;;;;;0.50;0.20;;;;;;;24.54;72.49;102932.19;4973360;28;20520;-68
2022/05/09 09:33:14;;;;;;;0.38;0.20;;;;;;;24.52;73.28;102923.22;4973289;28;20027;-68
2022/05/09 09:35:53;;;;;;;0.52;0.20;;;;;;;24.53;73.03;102919.47;4973221;28;20062;-68
2022/05/09 09:38:45;;;;;;;1.35;0.38;;;;;;;24.53;72.56;102925.84;4973111;28;20038;-68
2022/05/09 09:41:37;;;;;;;0.43;0.10;;;;;;;24.53;72.05;102912.09;4973282;28;20389;-68
2022/05/09 09:44:13;;;;;;;0.28;0.20;;;;;;;24.54;71.86;102910.19;4982990;28;20034;-68
2022/05/09 09:47:02;;;;;;;0.15;0.15;;;;;;;24.53;72.27;102908.47;4974536;28;20042;-68
2022/05/09 09:49:28;;;;;;;0.73;0.20;;;;;;;24.54;72.01;102910.19;4972746;28;20534;-68
2022/05/09 09:51:53;;;;;;;0.40;0.28;;;;;;;24.54;72.22;102910.19;4972423;28;20103;-68
2022/05/09 09:54:23;;;;;;;0.38;0.20;;;;;;;24.54;72.25;102910.19;4956496;28;20379;-68
2022/05/09 09:56:48;;;;;;;0.57;0.30;;;;;;;24.55;72.14;102915.53;5018200;28;20033;-68
2022/05/09 09:59:14;;;;;;;0.22;0.22;;;;;;;24.54;72.16;102902.81;5055050;28;20029;-68
2022/05/09 10:01:40;;;;;;;0.40;0.27;;;;;;;24.56;72.78;102908.16;5053874;28;20099;-68
2022/05/09 10:04:23;;;;;;;0.10;0.10;;;;;;;24.56;72.74;102908.16;5053902;28;20254;-68
2022/05/09 10:07:16;;;;;;;0.73;0.50;;;;;;;24.55;72.46;102907.28;5053892;28;20040;-68
2022/05/09 10:09:44;;;;;;;1.17;0.25;;;;;;;24.57;72.68;102904.38;5054096;28;20653;-68
2022/05/09 10:12:14;;;;;;;0.65;0.20;;;;;;;24.57;72.78;102896.13;5053545;28;20039;-67
2022/05/09 10:14:40;;;;;;;0.00;0.00;;;;;;;24.58;72.43;102895.09;5053648;28;20469;-68
2022/05/09 10:17:33;;;;;;;0.65;0.10;;;;;;;24.58;72.65;102895.09;5055021;28;20052;-68
2022/05/09 10:20:19;;;;;;;0.10;0.00;;;;;;;24.57;72.80;102887.88;5053434;28;20396;-67
2022/05/09 10:25:30;;;;;;;0.52;0.10;;;;;;;24.58;72.68;102906.09;5053470;28;20040;-68
2022/05/09 10:28:18;;;;;;;0.63;0.10;;;;;;;24.58;73.02;102878.59;5053452;28;20049;-68
2022/05/09 10:30:52;;;;;;;0.40;0.10;;;;;;;24.57;71.93;102871.38;5053516;28;20020;-67
2022/05/09 10:33:24;;;;;;;0.20;0.10;;;;;;;24.59;72.31;102872.06;5053684;28;20032;-67
2022/05/09 10:35:53;;;;;;;0.38;0.20;;;;;;;24.58;72.37;102868.44;5074663;28;20037;-68
2022/05/09 10:38:25;;;;;;;0.20;0.20;;;;;;;24.59;72.63;102869.31;5057816;28;20365;-68
2022/05/09 10:40:54;;;;;;;0.65;0.20;;;;;;;24.58;71.94;102864.84;5053103;28;20032;-68
2022/05/09 10:43:31;;;;;;;0.68;0.20;;;;;;;24.59;72.13;102855.56;5053147;28;20466;-68
2022/05/09 10:45:57;;;;;;;0.38;0.38;;;;;;;24.58;72.21;102859.34;5051878;28;20059;-67
2022/05/09 10:48:59;;;;;;;0.95;0.30;;;;;;;24.59;72.17;102859.16;5053798;28;20029;-67
2022/05/09 10:51:38;;;;;;;0.10;0.10;;;;;;;24.59;71.79;102859.16;5010503;28;20037;-68
2022/05/09 10:54:14;;;;;;;0.20;0.20;;;;;;;24.60;72.29;102849.03;5010785;28;20034;-68
2022/05/09 10:56:45;;;;;;;0.30;0.30;;;;;;;24.61;72.20;102850.75;5010794;28;20038;-68
2022/05/09 10:59:18;;;;;;;1.17;0.70;;;;;;;24.59;72.27;102852.81;5010810;28;20025;-67
2022/05/09 11:01:50;;;;;;;0.20;0.20;;;;;;;24.60;72.26;102838.03;5010799;28;20096;-67
2022/05/09 11:04:16;;;;;;;0.20;0.20;;;;;;;24.58;72.11;102840.09;5010042;28;20545;-67
2022/05/09 11:06:56;;;;;;;0.30;0.30;;;;;;;24.61;72.33;102839.75;5014841;28;20348;-68
2022/05/09 11:10:01;;;;;;;0.20;0.20;;;;;;;24.60;72.52;102832.53;5010523;28;20029;-68
2022/05/09 11:13:05;;;;;;;0.40;0.20;;;;;;;24.59;71.96;102825.31;5010352;28;20108;-67
2022/05/09 11:15:57;;;;;;;0.25;0.20;;;;;;;24.61;72.50;102828.75;5009785;28;20077;-68
2022/05/09 11:18:25;;;;;;;1.42;0.25;;;;;;;24.60;72.87;102824.28;4994269;28;20470;-68
2022/05/09 11:21:07;;;;;;;0.38;0.13;;;;;;;24.60;72.07;102833.38;4998972;28;20078;-68
2022/05/09 11:24:00;;;;;;;0.25;0.20;;;;;;;24.61;72.69;102831.50;4990824;28;20027;-68
2022/05/09 11:26:56;;;;;;;0.50;0.30;;;;;;;24.63;72.85;102831.34;5032121;28;20048;-66
2022/05/09 11:29:35;;;;;;;0.55;0.30;;;;;;;24.62;72.85;102824.97;5040132;28;20060;-68
2022/05/09 11:32:03;;;;;;;0.45;0.20;;;;;;;24.62;71.81;102824.97;5038087;28;20039;-67
2022/05/09 11:34:50;;;;;;;0.20;0.20;;;;;;;24.23;62.44;102819.09;5045888;28;20037;-65
2022/05/09 11:37:32;;;;;;;0.32;0.20;;;;;;;24.41;65.63;102822.66;5046602;28;20056;-67
2022/05/09 11:40:27;;;;;;;0.52;0.38;;;;;;;24.52;68.40;102803.13;5041082;28;20030;-67
2022/05/09 11:43:29;;;;;;;0.40;0.30;;;;;;;24.51;70.40;102811.50;5036924;28;20283;-67
2022/05/09 11:46:27;;;;;;;0.30;0.30;;;;;;;24.52;70.62;102818.72;5037832;28;20052;-67
2022/05/09 11:49:16;;;;;;;0.28;0.28;;;;;;;24.55;70.83;102807.44;5031617;28;20029;-67
2022/05/09 11:51:54;;;;;;;0.55;0.20;;;;;;;24.56;71.15;102799.00;5038383;28;20375;-67
2022/05/09 11:54:48;;;;;;;0.40;0.20;;;;;;;24.56;71.27;102803.66;5044872;28;20480;-68